KCKP

Cherokee County Regional Airport

Cherokee, Iowa, USA
METAR KCKP 220035Z AUTO 11003KT 10SM CLR M06/M10 A3059 RMK AO2 T10631105
Observed Flight Rules
Feb-22 @ 00:35 UTC (4 hours ago) Visual Flight Rules
Wind Visibility Clouds
110° at 3 knots 10 miles
  • Clear skies
Temperatures Readings
Current -6°C / 21°F
Dewpoint -11°C / 12°F
Humidity 68%
Altimeter 30.59" Hg
Pressure 1036 hPa
Elevation 374
METAR KCKP 220035Z AUTO 11003KT 10SM CLR M06/M10 A3059 RMK AO2 T10631105
Observed Flight Rules
Feb-22 @ 00:35 UTC
(4 hours ago)
VFR
Wind Visibility
110° at 3 knots 10 miles
Clouds
  • Clear skies
Temperature Dewpoint
-6°C / 21°F -11°C / 12°F
Humidity Altimeter Pressure
68% 30.59" Hg 1036 hPa